ダカール の空港の天気 - METARとTAF

レオポール・セダール・サンゴール国際空港 ( GOOY / DKR ) - セネガル ダカール
飛行場実況気象(Metar)
観測時間04/21 16:00 GMT (04/21 16:00 UTC)
風向・風速北北西 7m/s
視程10km以上
天気現象
少しの雲 雲底高度 300m
気温23℃
湿度78%
気圧1011hPa
METARGOOY 211600Z 34014KT 9999 FEW010 23/19 Q1011
過去の天気等 Google飛行場航空写真 Wunderground天気予報

過去48時間のMETAR

飛行場予報(TAF)
発表時間: 4/21 11:30 GMT (4/21 11:30 UTC)
予報対象時間: 21日12時 GMT ~ 22日18時 GMT
風向・風速北 4m/s
視程10km以上
なし
TAF GOOY 211130Z 2112/2218 36008KT CAVOK